Time;durP1;ratioP1;P1;durP2;ratioP2;P2;SDS_P1;SDS_P2;PMS_P1;PMS_P2;Temp;Humidity;BMP_temperature;BMP_pressure;BME280_temperature;BME280_humidity;BME280_pressure;Samples;Min_cycle;Max_cycle;Signal;HPM_P1;HPM_P2
2021/07/14 00:01:55;;;;;;;5.72;3.22;;;11.50;96.60;;;;;;6218556;23;20369;-86
2021/07/14 00:04:21;;;;;;;5.82;3.00;;;11.50;96.70;;;;;;6192963;23;20001;-85
2021/07/14 00:06:46;;;;;;;4.43;2.53;;;11.50;96.70;;;;;;6192439;23;20088;-86
2021/07/14 00:09:13;;;;;;;10.07;3.92;;;11.50;96.70;;;;;;6219378;23;20004;-85
2021/07/14 00:11:51;;;;;;;5.82;3.00;;;11.50;96.70;;;;;;6192466;23;20024;-86
2021/07/14 00:22:19;;;;;;;5.15;3.30;;;11.60;96.70;;;;;;6218702;23;20043;-86
2021/07/14 00:24:44;;;;;;;8.13;2.95;;;11.60;97.10;;;;;;6219244;23;20259;-86
2021/07/14 00:27:12;;;;;;;5.35;2.72;;;11.60;97.00;;;;;;6192829;23;20248;-86
2021/07/14 00:29:48;;;;;;;6.70;2.20;;;11.50;97.10;;;;;;6191283;23;20084;-85
2021/07/14 00:32:14;;;;;;;4.90;2.78;;;11.40;97.10;;;;;;6192806;23;20007;-86
2021/07/14 00:34:40;;;;;;;6.30;3.00;;;11.40;97.30;;;;;;6192693;23;20087;-86
2021/07/14 00:37:06;;;;;;;7.15;3.28;;;11.20;97.50;;;;;;6219132;23;20074;-85
2021/07/14 00:39:31;;;;;;;7.15;3.33;;;11.10;97.50;;;;;;6193088;23;20389;-85
2021/07/14 00:41:57;;;;;;;8.63;3.97;;;11.00;97.10;;;;;;6192488;23;20032;-85
2021/07/14 00:44:23;;;;;;;8.23;2.90;;;10.90;96.80;;;;;;6192454;23;20063;-85
2021/07/14 00:46:49;;;;;;;4.78;2.95;;;10.90;96.80;;;;;;6191246;23;20000;-85
2021/07/14 00:49:17;;;;;;;5.40;2.60;;;10.90;96.60;;;;;;6218716;23;20001;-85
2021/07/14 00:51:43;;;;;;;4.63;2.83;;;10.80;96.70;;;;;;6192314;23;20012;-84
2021/07/14 00:54:09;;;;;;;6.20;3.25;;;10.70;96.30;;;;;;6192453;23;20008;-84
2021/07/14 00:56:36;;;;;;;5.55;3.00;;;10.70;96.60;;;;;;6192729;23;20024;-87
2021/07/14 00:59:05;;;;;;;5.65;3.33;;;10.60;96.50;;;;;;6219062;23;20076;-87
2021/07/14 01:01:31;;;;;;;8.63;3.58;;;10.50;96.10;;;;;;6217056;23;20032;-85
2021/07/14 01:04:22;;;;;;;5.55;3.17;;;10.50;95.90;;;;;;6219283;23;20055;-85
2021/07/14 01:07:19;;;;;;;6.07;3.50;;;10.50;95.90;;;;;;6192811;23;20008;-84
2021/07/14 01:09:54;;;;;;;7.78;4.15;;;10.50;95.40;;;;;;6218860;23;20015;-87
2021/07/14 01:12:39;;;;;;;5.97;3.90;;;10.50;95.00;;;;;;6192215;23;20059;-85
2021/07/14 01:15:08;;;;;;;8.10;3.80;;;10.60;95.00;;;;;;6218723;23;20035;-85
2021/07/14 01:17:40;;;;;;;6.53;4.65;;;10.70;94.60;;;;;;6221343;23;20024;-85
2021/07/14 01:20:27;;;;;;;6.70;4.13;;;10.80;94.30;;;;;;6194712;23;20012;-86
2021/07/14 01:23:16;;;;;;;10.30;4.22;;;10.90;94.00;;;;;;6193888;23;20028;-85
2021/07/14 01:26:04;;;;;;;5.13;3.83;;;11.10;94.40;;;;;;6220732;23;20004;-84
2021/07/14 01:28:34;;;;;;;7.15;4.55;;;11.20;94.40;;;;;;6194373;23;20259;-85
2021/07/14 01:31:00;;;;;;;6.35;3.90;;;11.40;95.00;;;;;;6192830;23;20005;-85
2021/07/14 01:33:33;;;;;;;5.35;3.63;;;11.40;96.00;;;;;;6220594;23;20005;-84
2021/07/14 01:36:03;;;;;;;5.63;3.83;;;11.40;96.40;;;;;;6194597;23;20370;-85
2021/07/14 01:38:33;;;;;;;7.45;4.55;;;11.30;96.50;;;;;;6220953;23;19997;-85
2021/07/14 01:41:01;;;;;;;6.60;4.32;;;11.40;96.40;;;;;;6220858;23;20005;-85
2021/07/14 01:43:38;;;;;;;10.20;4.10;;;11.60;96.50;;;;;;6220223;23;20382;-85
2021/07/14 01:46:07;;;;;;;6.82;4.15;;;11.70;96.90;;;;;;6218814;23;20012;-85
2021/07/14 01:48:37;;;;;;;9.57;4.30;;;11.70;97.90;;;;;;6194620;23;20009;-84
2021/07/14 01:51:04;;;;;;;7.28;4.63;;;11.70;98.00;;;;;;6220418;23;20032;-85
2021/07/14 01:53:32;;;;;;;6.95;3.92;;;11.60;98.00;;;;;;6219829;23;20000;-85
2021/07/14 01:55:59;;;;;;;6.25;3.95;;;11.50;97.90;;;;;;6193977;23;20016;-85
2021/07/14 01:58:28;;;;;;;7.80;4.10;;;11.50;97.90;;;;;;6194312;23;20015;-85
2021/07/14 02:00:55;;;;;;;5.45;3.53;;;11.40;98.00;;;;;;6218516;23;20008;-83
2021/07/14 02:05:56;;;;;;;7.70;4.40;;;11.40;97.50;;;;;;6230355;23;20008;-85
2021/07/14 02:08:22;;;;;;;6.75;4.07;;;11.40;97.70;;;;;;6220079;23;19997;-84
2021/07/14 02:10:49;;;;;;;6.90;4.00;;;11.30;97.30;;;;;;6219920;23;20017;-85
2021/07/14 02:13:16;;;;;;;6.30;4.18;;;11.30;97.40;;;;;;6220608;23;20001;-83
2021/07/14 02:15:44;;;;;;;8.70;4.90;;;11.20;97.50;;;;;;6218846;23;20027;-84
2021/07/14 02:18:12;;;;;;;7.38;4.60;;;11.20;97.10;;;;;;6194013;23;20009;-83
2021/07/14 02:20:38;;;;;;;8.45;4.57;;;11.20;97.00;;;;;;6219616;23;20320;-85
2021/07/14 02:23:08;;;;;;;7.70;5.05;;;11.10;96.90;;;;;;6220713;23;20259;-85
2021/07/14 02:25:34;;;;;;;9.15;5.80;;;11.30;96.00;;;;;;6193165;23;20008;-85
2021/07/14 02:28:02;;;;;;;6.90;4.20;;;11.40;96.40;;;;;;6219975;23;20001;-86
2021/07/14 02:30:27;;;;;;;6.53;4.18;;;11.40;97.00;;;;;;6192737;23;20000;-85
2021/07/14 02:33:04;;;;;;;7.25;4.30;;;11.30;97.30;;;;;;6219769;23;20387;-85
2021/07/14 02:35:33;;;;;;;8.63;4.60;;;11.20;96.90;;;;;;6219873;23;20001;-85
2021/07/14 02:38:06;;;;;;;8.80;4.53;;;11.30;96.70;;;;;;6220144;23;20027;-84
2021/07/14 02:40:59;;;;;;;8.85;4.47;;;11.40;96.70;;;;;;6220017;23;20358;-84
2021/07/14 02:43:28;;;;;;;10.35;4.47;;;11.60;96.70;;;;;;6219693;23;20371;-85
2021/07/14 02:45:57;;;;;;;7.82;4.40;;;11.60;97.50;;;;;;6218458;23;20004;-85
2021/07/14 02:48:27;;;;;;;5.93;3.60;;;11.60;97.20;;;;;;6193568;23;20410;-84
2021/07/14 02:50:54;;;;;;;7.55;4.18;;;11.60;97.50;;;;;;6219703;23;20031;-84
2021/07/14 02:53:24;;;;;;;10.85;4.82;;;11.70;97.10;;;;;;6219959;23;19996;-85
2021/07/14 02:56:01;;;;;;;7.28;4.70;;;11.70;97.10;;;;;;6193455;23;20009;-84
2021/07/14 02:58:32;;;;;;;9.60;4.63;;;11.90;97.40;;;;;;6219689;23;20079;-84
2021/07/14 03:01:00;;;;;;;23.00;4.60;;;12.00;97.60;;;;;;6218581;23;20039;-85
2021/07/14 03:03:26;;;;;;;10.07;4.75;;;12.00;98.00;;;;;;6193297;23;20385;-85
2021/07/14 03:05:56;;;;;;;9.15;4.43;;;12.00;97.90;;;;;;6219843;23;20000;-83
2021/07/14 03:08:26;;;;;;;7.72;4.95;;;12.00;98.00;;;;;;6220036;23;19997;-84
2021/07/14 03:10:55;;;;;;;7.70;4.72;;;12.10;98.00;;;;;;6192946;23;20387;-84
2021/07/14 03:13:23;;;;;;;8.48;4.68;;;12.20;98.00;;;;;;6219604;23;20004;-84
2021/07/14 03:15:56;;;;;;;6.90;4.78;;;12.30;98.00;;;;;;6218231;23;20433;-83
2021/07/14 03:18:28;;;;;;;7.50;4.28;;;12.40;98.00;;;;;;6193011;23;20314;-84
2021/07/14 03:20:56;;;;;;;7.30;4.65;;;12.50;98.00;;;;;;6193652;23;20051;-84
2021/07/14 03:23:23;;;;;;;9.18;4.57;;;12.50;98.00;;;;;;6219464;23;20005;-84
2021/07/14 03:25:51;;;;;;;8.57;4.63;;;12.60;98.00;;;;;;6193161;23;20012;-83
2021/07/14 03:28:18;;;;;;;7.20;4.50;;;12.60;98.00;;;;;;6193100;23;20345;-83
2021/07/14 03:30:45;;;;;;;7.30;4.55;;;12.50;98.00;;;;;;6217766;23;20030;-83
2021/07/14 03:33:11;;;;;;;9.25;4.93;;;12.60;98.00;;;;;;6193625;23;20263;-83
2021/07/14 03:35:39;;;;;;;7.38;4.40;;;12.60;98.00;;;;;;6193305;23;20011;-83
2021/07/14 03:38:08;;;;;;;6.38;4.53;;;12.60;98.00;;;;;;6219335;23;20248;-83
2021/07/14 03:40:35;;;;;;;7.72;4.10;;;12.60;98.00;;;;;;6219356;23;20012;-83
2021/07/14 03:43:02;;;;;;;6.85;4.50;;;12.60;98.00;;;;;;6219477;23;20011;-82
2021/07/14 03:45:29;;;;;;;6.55;4.22;;;12.70;98.00;;;;;;6217430;23;20001;-81
2021/07/14 03:47:57;;;;;;;10.77;4.20;;;12.70;98.00;;;;;;6219967;23;20028;-83
2021/07/14 03:50:23;;;;;;;7.47;4.43;;;12.70;98.00;;;;;;6219062;23;20305;-82
2021/07/14 03:52:49;;;;;;;5.85;3.90;;;12.80;98.00;;;;;;6192671;23;20012;-85
2021/07/14 03:55:15;;;;;;;5.93;3.72;;;12.80;98.00;;;;;;6219395;23;20004;-84
2021/07/14 03:57:42;;;;;;;7.10;4.35;;;12.90;98.00;;;;;;6219510;23;20301;-83
2021/07/14 04:00:09;;;;;;;7.97;4.20;;;12.90;98.00;;;;;;6217442;23;20122;-84
2021/07/14 04:02:37;;;;;;;5.10;3.30;;;12.90;98.00;;;;;;6218871;23;20004;-83
2021/07/14 04:05:05;;;;;;;10.10;3.83;;;12.90;98.00;;;;;;6192649;23;20187;-83
2021/07/14 04:07:33;;;;;;;5.65;3.75;;;12.90;98.00;;;;;;6218998;23;20007;-83
2021/07/14 04:10:01;;;;;;;6.03;3.95;;;13.00;98.00;;;;;;6192655;23;20021;-83
2021/07/14 04:12:27;;;;;;;6.57;3.90;;;13.00;98.00;;;;;;6218626;23;20080;-83
2021/07/14 04:14:52;;;;;;;6.45;3.92;;;13.00;98.00;;;;;;6217717;23;20024;-83
2021/07/14 04:17:18;;;;;;;6.63;3.63;;;13.00;98.00;;;;;;6219171;23;20004;-83
2021/07/14 04:19:44;;;;;;;8.05;4.18;;;13.00;98.00;;;;;;6218400;23;20028;-83
2021/07/14 04:22:11;;;;;;;7.60;4.05;;;12.90;98.00;;;;;;6218198;23;20007;-83
2021/07/14 04:24:38;;;;;;;6.95;4.10;;;12.90;98.00;;;;;;6218930;23;20041;-83
2021/07/14 04:27:04;;;;;;;6.20;4.28;;;12.80;98.00;;;;;;6218624;23;20004;-83
2021/07/14 04:29:30;;;;;;;7.30;4.72;;;12.80;98.00;;;;;;6217883;23;20001;-82
2021/07/14 04:31:55;;;;;;;6.47;4.40;;;12.70;98.00;;;;;;6218384;23;20015;-83
2021/07/14 04:34:21;;;;;;;7.90;3.85;;;12.80;98.00;;;;;;6217536;23;20298;-82
2021/07/14 04:36:47;;;;;;;8.75;3.85;;;12.80;98.00;;;;;;6218528;23;20072;-83
2021/07/14 04:39:12;;;;;;;6.53;3.50;;;12.80;98.00;;;;;;6218886;23;20004;-84
2021/07/14 04:41:41;;;;;;;8.23;3.67;;;12.90;98.00;;;;;;6218401;23;20358;-83
2021/07/14 04:44:08;;;;;;;7.15;3.58;;;13.00;98.00;;;;;;6218570;23;20274;-84
2021/07/14 04:46:34;;;;;;;4.95;3.22;;;13.20;98.00;;;;;;6216891;23;20005;-83
2021/07/14 04:49:01;;;;;;;6.25;3.47;;;13.20;98.00;;;;;;6218634;23;20263;-82
2021/07/14 04:51:27;;;;;;;5.95;3.55;;;13.30;98.00;;;;;;6191957;23;20024;-83
2021/07/14 04:53:53;;;;;;;6.95;3.50;;;13.10;98.00;;;;;;6218915;23;20054;-83
2021/07/14 04:56:19;;;;;;;8.10;3.65;;;13.00;98.00;;;;;;6191828;23;20096;-82
2021/07/14 04:58:46;;;;;;;10.25;4.80;;;13.00;98.00;;;;;;6191905;23;20008;-81
2021/07/14 05:01:13;;;;;;;6.45;4.28;;;13.10;98.00;;;;;;6216191;23;20009;-82
2021/07/14 05:03:47;;;;;;;6.05;3.97;;;13.00;98.00;;;;;;6217341;23;20084;-82
2021/07/14 05:06:17;;;;;;;12.82;5.03;;;13.00;98.00;;;;;;6191839;23;20271;-83
2021/07/14 05:08:44;;;;;;;6.57;3.85;;;13.00;98.00;;;;;;6192627;23;20107;-82
2021/07/14 05:11:10;;;;;;;6.53;4.10;;;12.90;98.00;;;;;;6217101;23;20023;-83
2021/07/14 05:13:35;;;;;;;5.43;3.83;;;13.00;98.00;;;;;;6218529;23;20075;-82
2021/07/14 05:16:01;;;;;;;8.70;4.10;;;13.00;98.00;;;;;;6217197;23;20508;-83
2021/07/14 05:18:27;;;;;;;7.28;3.92;;;13.10;98.00;;;;;;6218915;23;20266;-83
2021/07/14 05:20:55;;;;;;;8.45;3.95;;;13.10;98.00;;;;;;6192493;23;20004;-82
2021/07/14 05:23:21;;;;;;;6.28;3.40;;;13.20;98.00;;;;;;6218707;23;20028;-83
2021/07/14 05:25:47;;;;;;;6.47;4.00;;;13.30;98.00;;;;;;6218719;23;20361;-83
2021/07/14 05:28:12;;;;;;;4.57;3.10;;;13.30;98.00;;;;;;6218553;23;20425;-82
2021/07/14 05:30:39;;;;;;;9.00;3.67;;;13.40;98.00;;;;;;6217171;23;19996;-83
2021/07/14 05:33:05;;;;;;;8.77;3.72;;;13.40;98.00;;;;;;6218635;23;20009;-83
2021/07/14 05:35:31;;;;;;;15.85;5.72;;;13.60;98.00;;;;;;6218777;23;20367;-82
2021/07/14 05:37:57;;;;;;;6.22;3.33;;;13.60;98.00;;;;;;6192546;23;20038;-83
2021/07/14 05:40:23;;;;;;;5.32;3.30;;;13.60;98.00;;;;;;6218705;23;20076;-83
2021/07/14 05:42:49;;;;;;;5.78;3.28;;;13.60;98.00;;;;;;6192053;23;20012;-83
2021/07/14 05:45:15;;;;;;;5.47;3.10;;;13.80;98.00;;;;;;6217143;23;20420;-83
2021/07/14 05:47:41;;;;;;;7.70;3.50;;;14.00;98.00;;;;;;6192396;23;20034;-83
2021/07/14 05:50:07;;;;;;;6.35;3.65;;;14.10;98.00;;;;;;6218941;23;20246;-83
2021/07/14 05:52:33;;;;;;;5.95;3.40;;;14.40;98.00;;;;;;6192038;23;20001;-82
2021/07/14 05:54:59;;;;;;;12.63;3.05;;;14.80;98.00;;;;;;6218730;23;20286;-83
2021/07/14 05:57:25;;;;;;;7.00;3.10;;;15.20;98.00;;;;;;6218386;23;20382;-82
2021/07/14 05:59:51;;;;;;;6.55;3.00;;;15.20;97.50;;;;;;6217343;23;20001;-83
2021/07/14 06:02:17;;;;;;;7.15;2.90;;;15.30;97.90;;;;;;6220013;23;20346;-83
2021/07/14 06:04:42;;;;;;;7.03;2.85;;;15.50;97.90;;;;;;6220235;23;20047;-83
2021/07/14 06:07:08;;;;;;;5.47;3.00;;;15.50;97.70;;;;;;6194194;23;20004;-83
2021/07/14 06:09:34;;;;;;;6.38;3.10;;;15.20;97.50;;;;;;6220458;23;20393;-82
2021/07/14 06:12:03;;;;;;;6.00;3.00;;;15.10;97.60;;;;;;6220478;23;19997;-83
2021/07/14 06:14:29;;;;;;;5.15;2.72;;;15.00;97.90;;;;;;6218432;23;20326;-82
2021/07/14 06:16:55;;;;;;;3.97;2.47;;;15.00;98.00;;;;;;6220352;23;20004;-83
2021/07/14 06:19:21;;;;;;;5.60;2.80;;;15.10;98.00;;;;;;6194372;23;20051;-83
2021/07/14 06:21:47;;;;;;;4.25;2.60;;;15.10;98.00;;;;;;6193730;23;20005;-83
2021/07/14 06:24:12;;;;;;;5.05;2.92;;;15.20;97.90;;;;;;6194092;23;20011;-83
2021/07/14 06:26:39;;;;;;;4.65;2.60;;;15.40;98.00;;;;;;6220150;23;20008;-83
2021/07/14 06:29:05;;;;;;;6.32;2.90;;;15.50;97.30;;;;;;6219877;23;20076;-83
2021/07/14 06:31:31;;;;;;;4.38;2.60;;;15.70;95.90;;;;;;6219206;23;20020;-83
2021/07/14 06:33:56;;;;;;;5.03;2.47;;;15.80;96.20;;;;;;6220355;23;20007;-83
2021/07/14 06:36:22;;;;;;;5.00;2.50;;;16.10;95.90;;;;;;6193829;23;20004;-82
2021/07/14 06:38:48;;;;;;;5.18;2.88;;;16.40;96.00;;;;;;6220331;23;20055;-81
2021/07/14 06:41:17;;;;;;;5.05;2.72;;;16.60;94.20;;;;;;6193658;23;20004;-81
2021/07/14 06:43:49;;;;;;;4.90;2.38;;;16.80;94.40;;;;;;6219779;23;20001;-81
2021/07/14 06:46:19;;;;;;;4.57;2.17;;;17.10;94.40;;;;;;6218175;23;20363;-83
2021/07/14 06:48:45;;;;;;;5.28;2.17;;;17.20;91.10;;;;;;6218714;23;20050;-82
2021/07/14 06:51:11;;;;;;;5.90;2.72;;;17.30;91.10;;;;;;6217771;23;20001;-83
2021/07/14 06:53:38;;;;;;;4.07;2.17;;;17.40;92.30;;;;;;6217564;23;20079;-83
2021/07/14 06:56:04;;;;;;;4.40;2.40;;;17.50;91.90;;;;;;6217481;23;20063;-82
2021/07/14 06:58:30;;;;;;;6.00;2.40;;;17.60;91.30;;;;;;6191412;23;20015;-83
2021/07/14 07:00:57;;;;;;;3.92;2.35;;;17.60;91.80;;;;;;6189836;23;20015;-83
2021/07/14 07:03:23;;;;;;;5.40;2.78;;;17.70;90.70;;;;;;6190917;23;20030;-83
2021/07/14 07:05:50;;;;;;;4.90;2.30;;;17.80;91.40;;;;;;6217405;23;20083;-82
2021/07/14 07:08:16;;;;;;;4.22;2.40;;;18.00;90.00;;;;;;6193142;23;20083;-82
2021/07/14 07:10:43;;;;;;;4.15;2.30;;;17.90;89.30;;;;;;6218847;23;20039;-82
2021/07/14 07:13:09;;;;;;;7.47;2.53;;;17.90;90.10;;;;;;6219047;23;20236;-83
2021/07/14 07:15:34;;;;;;;4.40;2.38;;;17.90;89.50;;;;;;6191849;23;20007;-82
2021/07/14 07:18:00;;;;;;;3.70;2.15;;;17.80;89.60;;;;;;6219563;23;20015;-82
2021/07/14 07:20:26;;;;;;;6.88;3.05;;;17.80;89.70;;;;;;6219685;23;20011;-82
2021/07/14 07:22:51;;;;;;;4.90;2.67;;;17.80;91.40;;;;;;6193324;23;20009;-82
2021/07/14 07:25:18;;;;;;;5.00;2.33;;;17.50;91.40;;;;;;6219338;23;20008;-82
2021/07/14 07:27:44;;;;;;;5.68;2.50;;;17.80;92.00;;;;;;6219093;23;20003;-82
2021/07/14 07:30:11;;;;;;;4.30;2.25;;;18.00;89.80;;;;;;6218077;23;20001;-82
2021/07/14 07:32:37;;;;;;;4.65;2.53;;;18.10;89.60;;;;;;6219291;23;20000;-82
2021/07/14 07:35:06;;;;;;;4.68;2.30;;;18.20;90.70;;;;;;6219478;23;20007;-82
2021/07/14 07:37:35;;;;;;;5.75;2.88;;;18.50;89.60;;;;;;6219409;23;19997;-82
2021/07/14 07:40:01;;;;;;;5.22;2.63;;;18.30;89.40;;;;;;6193075;23;20371;-82
2021/07/14 07:42:28;;;;;;;4.65;2.63;;;18.30;90.70;;;;;;6192764;23;20011;-82
2021/07/14 07:44:54;;;;;;;3.72;2.28;;;18.70;88.70;;;;;;6190978;23;20007;-82
2021/07/14 07:47:19;;;;;;;5.68;2.33;;;18.80;89.00;;;;;;6193057;23;20008;-82
2021/07/14 07:49:46;;;;;;;6.88;2.50;;;19.00;86.60;;;;;;6219006;23;20085;-82
2021/07/14 07:52:13;;;;;;;7.05;2.42;;;19.10;87.60;;;;;;6192512;23;20056;-82
2021/07/14 07:54:39;;;;;;;5.30;2.25;;;19.30;85.70;;;;;;6192283;23;20001;-82
2021/07/14 07:57:05;;;;;;;4.35;2.42;;;19.10;86.10;;;;;;6192265;23;20421;-82
2021/07/14 07:59:31;;;;;;;4.15;2.53;;;19.20;85.90;;;;;;6217668;23;20000;-82
2021/07/14 08:01:57;;;;;;;4.63;2.47;;;19.10;86.80;;;;;;6219177;23;20067;-82
2021/07/14 08:04:22;;;;;;;6.35;2.80;;;18.70;88.30;;;;;;6193107;23;20036;-82
2021/07/14 08:06:48;;;;;;;4.97;2.80;;;18.50;88.40;;;;;;6193088;23;20008;-82
2021/07/14 08:09:14;;;;;;;6.65;2.72;;;18.30;88.70;;;;;;6192838;23;20016;-82
2021/07/14 08:11:40;;;;;;;5.53;2.95;;;18.30;89.70;;;;;;6219344;23;20011;-82
2021/07/14 08:14:06;;;;;;;7.97;2.83;;;18.30;90.70;;;;;;6219069;23;20042;-82
2021/07/14 08:16:31;;;;;;;6.00;2.63;;;18.50;90.90;;;;;;6218273;23;20454;-82
2021/07/14 08:18:57;;;;;;;4.47;2.80;;;18.40;90.40;;;;;;6219132;23;20008;-82
2021/07/14 08:21:23;;;;;;;4.65;2.90;;;18.60;90.10;;;;;;6219357;23;20000;-82
2021/07/14 08:23:50;;;;;;;7.57;2.83;;;18.80;89.60;;;;;;6192189;23;20375;-81
2021/07/14 08:26:16;;;;;;;5.85;3.05;;;18.80;89.10;;;;;;6218899;23;20274;-82
2021/07/14 08:28:43;;;;;;;6.47;3.33;;;18.50;90.50;;;;;;6218927;23;20024;-82
2021/07/14 08:31:09;;;;;;;4.97;2.90;;;18.40;92.10;;;;;;6217727;23;20000;-82
2021/07/14 08:33:35;;;;;;;5.18;2.95;;;18.40;91.30;;;;;;6192787;23;20005;-82
2021/07/14 08:36:01;;;;;;;7.47;2.88;;;18.50;91.50;;;;;;6219135;23;20008;-82
2021/07/14 08:38:28;;;;;;;5.65;2.97;;;18.50;91.70;;;;;;6192540;23;20036;-82
2021/07/14 08:40:54;;;;;;;5.72;2.95;;;18.50;91.60;;;;;;6219163;23;20007;-82
2021/07/14 08:43:21;;;;;;;5.40;3.20;;;18.30;91.50;;;;;;6219204;23;20015;-82
2021/07/14 08:45:47;;;;;;;8.88;3.40;;;18.20;92.30;;;;;;6191077;23;20009;-81
2021/07/14 08:48:16;;;;;;;5.65;3.13;;;18.30;91.90;;;;;;6218962;23;20004;-82
2021/07/14 08:50:44;;;;;;;7.93;3.13;;;18.20;91.80;;;;;;6192804;23;20013;-81
2021/07/14 08:53:18;;;;;;;7.00;3.30;;;18.10;92.10;;;;;;6191862;23;20009;-82
2021/07/14 08:55:44;;;;;;;6.30;3.35;;;18.10;91.90;;;;;;6218964;23;20056;-82
2021/07/14 08:58:19;;;;;;;5.72;3.20;;;18.10;91.40;;;;;;6218232;23;20005;-82
2021/07/14 09:00:47;;;;;;;8.48;3.00;;;18.30;91.30;;;;;;6217283;23;20371;-82
2021/07/14 09:03:13;;;;;;;6.80;3.58;;;18.00;92.80;;;;;;6218599;23;20011;-82
2021/07/14 09:05:39;;;;;;;5.53;2.85;;;18.00;92.70;;;;;;6218385;23;20071;-82
2021/07/14 09:08:04;;;;;;;7.43;3.00;;;18.10;92.90;;;;;;6191883;23;20387;-82
2021/07/14 09:10:30;;;;;;;4.90;2.63;;;18.30;92.40;;;;;;6192331;23;20020;-81
2021/07/14 09:12:58;;;;;;;6.43;2.85;;;18.70;92.30;;;;;;6218904;23;20046;-82
2021/07/14 09:15:28;;;;;;;5.88;2.53;;;19.00;91.20;;;;;;6217398;23;20008;-82
2021/07/14 09:17:59;;;;;;;6.88;2.92;;;19.00;89.90;;;;;;6218922;23;20076;-82
2021/07/14 09:20:28;;;;;;;6.20;2.72;;;19.10;90.00;;;;;;6192780;23;20008;-82
2021/07/14 09:23:04;;;;;;;5.35;2.15;;;19.30;89.30;;;;;;6218908;23;20067;-82
2021/07/14 09:25:41;;;;;;;5.90;2.75;;;19.50;89.30;;;;;;6192437;23;20091;-82
2021/07/14 09:28:08;;;;;;;5.22;3.25;;;19.70;87.30;;;;;;6192338;23;20075;-81
2021/07/14 09:30:36;;;;;;;5.35;2.60;;;19.90;87.10;;;;;;6217417;23;19999;-81
2021/07/14 09:33:13;;;;;;;6.53;3.00;;;20.00;86.40;;;;;;6192046;23;20008;-81
2021/07/14 09:35:52;;;;;;;3.95;2.55;;;20.00;86.40;;;;;;6193360;23;20004;-81
2021/07/14 09:38:22;;;;;;;4.90;2.53;;;20.20;86.50;;;;;;6220580;23;20005;-81
2021/07/14 09:40:53;;;;;;;5.25;2.47;;;20.70;85.70;;;;;;6220714;23;20011;-83
2021/07/14 09:43:30;;;;;;;4.15;2.70;;;20.80;84.00;;;;;;6220605;23;20075;-83
2021/07/14 09:46:05;;;;;;;5.60;2.92;;;20.60;83.70;;;;;;6219008;23;20007;-82
2021/07/14 09:48:47;;;;;;;8.15;2.70;;;20.10;86.00;;;;;;6220741;23;20079;-82
2021/07/14 09:51:13;;;;;;;4.43;2.40;;;20.20;85.40;;;;;;6194422;23;20092;-82
2021/07/14 09:53:44;;;;;;;6.20;2.85;;;20.30;85.90;;;;;;6220519;23;20688;-82
2021/07/14 09:56:14;;;;;;;5.68;2.75;;;20.50;84.40;;;;;;6194049;23;20040;-81
2021/07/14 09:58:40;;;;;;;4.07;2.33;;;20.50;85.20;;;;;;6220611;23;20004;-82
2021/07/14 10:01:10;;;;;;;7.70;3.30;;;20.30;85.90;;;;;;6219159;23;20050;-82
2021/07/14 10:03:38;;;;;;;3.92;2.03;;;20.40;85.30;;;;;;6220386;23;20032;-81
2021/07/14 10:06:05;;;;;;;3.72;2.33;;;20.10;86.40;;;;;;6220113;23;20005;-81
2021/07/14 10:08:33;;;;;;;7.07;2.63;;;19.50;87.20;;;;;;6220551;23;20001;-81
2021/07/14 10:11:12;;;;;;;5.00;2.70;;;19.20;89.60;;;;;;6220457;23;20013;-81
2021/07/14 10:13:52;;;;;;;5.50;2.85;;;19.60;88.00;;;;;;6220746;23;20071;-81
2021/07/14 10:16:20;;;;;;;4.15;2.20;;;19.80;87.40;;;;;;6218940;23;20081;-82
2021/07/14 10:18:57;;;;;;;4.65;2.22;;;20.50;84.60;;;;;;6220203;23;20008;-81
2021/07/14 10:21:23;;;;;;;7.38;2.95;;;21.00;82.00;;;;;;6220362;23;20011;-81
2021/07/14 10:23:49;;;;;;;5.32;2.35;;;21.20;81.30;;;;;;6220530;23;20414;-82
2021/07/14 10:26:16;;;;;;;4.68;2.20;;;21.20;80.60;;;;;;6193807;23;20019;-82
2021/07/14 10:28:44;;;;;;;4.20;2.28;;;21.20;81.70;;;;;;6220119;23;19997;-81
2021/07/14 10:31:09;;;;;;;5.47;1.92;;;20.70;80.80;;;;;;6192237;23;20000;-81
2021/07/14 10:33:37;;;;;;;4.57;1.88;;;20.90;81.60;;;;;;6220020;23;20011;-81
2021/07/14 10:36:06;;;;;;;4.93;2.15;;;20.90;82.10;;;;;;6193593;23;20091;-81
2021/07/14 10:38:32;;;;;;;5.63;1.85;;;21.10;81.70;;;;;;6220143;23;20078;-81
2021/07/14 10:40:58;;;;;;;5.40;2.35;;;21.70;79.50;;;;;;6194097;23;20039;-81
2021/07/14 10:43:27;;;;;;;3.55;1.85;;;21.80;78.70;;;;;;6220293;23;20230;-81
2021/07/14 10:45:53;;;;;;;4.13;1.98;;;21.90;78.80;;;;;;6218433;23;20027;-81
2021/07/14 10:48:21;;;;;;;4.70;1.83;;;21.70;78.90;;;;;;6219956;23;20099;-81
2021/07/14 10:50:48;;;;;;;4.53;1.65;;;22.10;78.50;;;;;;6220152;23;20032;-81
2021/07/14 10:53:17;;;;;;;4.00;1.83;;;22.60;76.00;;;;;;6220317;23;20008;-81
2021/07/14 10:55:43;;;;;;;3.10;1.52;;;23.00;74.20;;;;;;6220083;23;20004;-81
2021/07/14 10:58:14;;;;;;;3.58;1.65;;;22.90;73.30;;;;;;6220021;23;20039;-81
2021/07/14 11:00:41;;;;;;;4.50;1.88;;;22.40;74.60;;;;;;6192388;23;20406;-82
2021/07/14 11:03:07;;;;;;;3.22;1.73;;;22.20;76.90;;;;;;6193573;23;20008;-81
2021/07/14 11:05:53;;;;;;;3.53;1.88;;;22.20;76.40;;;;;;6193462;23;20012;-81
2021/07/14 11:08:39;;;;;;;3.20;1.90;;;22.30;76.90;;;;;;6219654;23;20074;-81
2021/07/14 11:11:04;;;;;;;4.25;1.88;;;22.40;77.50;;;;;;6193417;23;20021;-81
2021/07/14 11:13:32;;;;;;;3.30;1.80;;;22.90;74.30;;;;;;6219811;23;20262;-81
2021/07/14 11:16:19;;;;;;;6.68;1.67;;;22.80;74.60;;;;;;6192063;23;20049;-81
2021/07/14 11:18:45;;;;;;;3.67;1.90;;;22.80;74.80;;;;;;6193260;23;20103;-81
2021/07/14 11:21:45;;;;;;;5.55;1.80;;;23.00;75.50;;;;;;6219794;23;20032;-81
2021/07/14 11:24:11;;;;;;;5.15;1.73;;;23.30;75.60;;;;;;6219849;23;20084;-81
2021/07/14 11:26:37;;;;;;;3.92;1.65;;;23.30;74.60;;;;;;6220114;23;20038;-81
2021/07/14 11:29:14;;;;;;;4.60;1.70;;;23.80;72.90;;;;;;6219661;23;20377;-81
2021/07/14 11:31:42;;;;;;;3.67;1.60;;;24.20;71.50;;;;;;6191816;23;20016;-81
2021/07/14 11:34:30;;;;;;;3.13;1.60;;;24.10;73.40;;;;;;6219841;23;20000;-81
2021/07/14 11:36:56;;;;;;;3.47;1.80;;;24.30;73.00;;;;;;6219743;23;20004;-81
2021/07/14 11:39:29;;;;;;;3.40;1.77;;;24.50;71.20;;;;;;6193358;23;20271;-81
2021/07/14 11:42:14;;;;;;;2.97;1.65;;;24.60;72.40;;;;;;6219829;23;20004;-81
2021/07/14 11:44:40;;;;;;;2.97;1.50;;;25.10;71.00;;;;;;6192025;23;20680;-81
2021/07/14 11:47:31;;;;;;;3.42;1.70;;;24.80;70.10;;;;;;6193451;23;20004;-81
2021/07/14 11:49:57;;;;;;;5.05;1.70;;;24.80;70.50;;;;;;6219587;23;19997;-81
2021/07/14 11:52:42;;;;;;;4.20;1.95;;;24.30;71.80;;;;;;6193298;23;20005;-80
2021/07/14 11:55:40;;;;;;;2.78;1.50;;;23.80;74.70;;;;;;6193061;23;20005;-80
2021/07/14 11:58:06;;;;;;;5.68;2.05;;;23.20;75.30;;;;;;6186013;23;20011;-80
2021/07/14 12:00:35;;;;;;;3.40;1.67;;;22.50;75.70;;;;;;6191261;23;20259;-80
2021/07/14 12:03:08;;;;;;;3.58;1.88;;;22.10;77.20;;;;;;6193140;23;20001;-80
2021/07/14 12:05:35;;;;;;;5.05;2.00;;;21.70;77.70;;;;;;6219161;23;19996;-81
2021/07/14 12:08:14;;;;;;;3.75;2.08;;;21.50;79.60;;;;;;6219096;23;20000;-80
2021/07/14 12:10:42;;;;;;;4.30;1.70;;;21.70;78.30;;;;;;6218521;23;20028;-80
2021/07/14 12:13:08;;;;;;;3.42;1.63;;;21.90;76.90;;;;;;6217510;23;20007;-80
2021/07/14 12:15:45;;;;;;;4.55;1.90;;;22.40;77.10;;;;;;6190334;23;20063;-80
2021/07/14 12:18:12;;;;;;;3.47;1.77;;;22.50;75.50;;;;;;6218050;23;20004;-80
2021/07/14 12:20:48;;;;;;;5.32;2.05;;;21.80;77.60;;;;;;6191637;23;20009;-80
2021/07/14 12:23:15;;;;;;;3.20;1.73;;;21.60;78.40;;;;;;6217523;23;20019;-80
2021/07/14 12:25:41;;;;;;;4.88;2.20;;;21.10;79.20;;;;;;6190875;23;20405;-79
2021/07/14 12:28:14;;;;;;;3.75;1.92;;;20.90;79.60;;;;;;6218841;23;19997;-79
2021/07/14 12:30:47;;;;;;;3.35;1.98;;;20.40;81.00;;;;;;6190998;23;20005;-79
2021/07/14 12:33:15;;;;;;;3.33;1.90;;;20.20;82.80;;;;;;6191520;23;20004;-79
2021/07/14 12:35:43;;;;;;;4.43;1.80;;;20.00;84.00;;;;;;6217438;23;20062;-80
2021/07/14 12:38:14;;;;;;;3.50;2.03;;;19.80;83.00;;;;;;6218317;23;20011;-78
2021/07/14 12:40:45;;;;;;;3.60;2.00;;;20.00;83.10;;;;;;6217209;23;20012;-80
2021/07/14 12:43:16;;;;;;;4.10;2.10;;;20.20;82.80;;;;;;6218488;23;20075;-80
2021/07/14 12:45:47;;;;;;;4.97;1.55;;;20.60;82.70;;;;;;6216944;23;19996;-80
2021/07/14 12:48:20;;;;;;;4.68;2.15;;;20.90;80.50;;;;;;6218844;23;20000;-80
2021/07/14 12:50:47;;;;;;;3.47;2.00;;;21.10;79.10;;;;;;6218702;23;20080;-80
2021/07/14 12:53:20;;;;;;;4.25;1.75;;;21.20;78.80;;;;;;6192620;23;20008;-80
2021/07/14 12:55:46;;;;;;;3.20;1.70;;;21.30;79.80;;;;;;6218589;23;20055;-79
2021/07/14 12:58:16;;;;;;;4.00;1.80;;;21.00;78.80;;;;;;6223391;23;20086;-80
2021/07/14 13:00:44;;;;;;;3.40;1.77;;;20.20;81.70;;;;;;6216979;23;20428;-80
2021/07/14 13:03:11;;;;;;;2.97;1.73;;;20.00;82.40;;;;;;6192472;23;20008;-80
2021/07/14 13:05:41;;;;;;;3.55;1.83;;;19.70;84.20;;;;;;6191124;23;20005;-79